sensor_id;sensor_type;location;lat;lon;timestamp;pressure;altitude;pressure_sealevel;temperature;humidity
11268;BME280;72685;47.474;9.416;2023-09-18T00:02:06;94992.13;;;23.79;43.68
11268;BME280;72685;47.474;9.416;2023-09-18T00:04:32;94992.22;;;23.65;44.58
11268;BME280;72685;47.474;9.416;2023-09-18T00:06:57;94989.88;;;23.67;44.33
11268;BME280;72685;47.474;9.416;2023-09-18T00:09:22;95002.41;;;23.57;44.80
11268;BME280;72685;47.474;9.416;2023-09-18T00:11:48;95003.06;;;23.06;47.94
11268;BME280;72685;47.474;9.416;2023-09-18T00:14:14;95014.88;;;22.64;50.34
11268;BME280;72685;47.474;9.416;2023-09-18T00:16:39;95014.16;;;22.36;51.58
11268;BME280;72685;47.474;9.416;2023-09-18T00:19:05;95006.03;;;22.07;51.05
11268;BME280;72685;47.474;9.416;2023-09-18T00:21:33;94999.00;;;21.85;51.29
11268;BME280;72685;47.474;9.416;2023-09-18T00:23:59;94998.19;;;21.71;52.76
11268;BME280;72685;47.474;9.416;2023-09-18T00:26:25;94990.03;;;21.46;53.92
11268;BME280;72685;47.474;9.416;2023-09-18T00:28:50;94993.13;;;21.34;54.85
11268;BME280;72685;47.474;9.416;2023-09-18T00:31:16;94981.34;;;21.01;55.75
11268;BME280;72685;47.474;9.416;2023-09-18T00:33:41;94981.72;;;20.89;54.90
11268;BME280;72685;47.474;9.416;2023-09-18T00:36:06;94983.94;;;20.66;56.48
11268;BME280;72685;47.474;9.416;2023-09-18T00:38:32;94988.16;;;20.56;56.67
11268;BME280;72685;47.474;9.416;2023-09-18T00:40:57;94979.19;;;20.49;57.72
11268;BME280;72685;47.474;9.416;2023-09-18T00:43:22;94978.44;;;20.48;57.96
11268;BME280;72685;47.474;9.416;2023-09-18T00:45:48;94969.81;;;20.36;58.23
11268;BME280;72685;47.474;9.416;2023-09-18T00:48:15;94967.44;;;20.27;58.29
11268;BME280;72685;47.474;9.416;2023-09-18T00:50:41;94983.59;;;20.10;60.01
11268;BME280;72685;47.474;9.416;2023-09-18T00:53:07;94982.31;;;19.93;62.27
11268;BME280;72685;47.474;9.416;2023-09-18T00:55:36;94967.94;;;19.89;63.06
11268;BME280;72685;47.474;9.416;2023-09-18T00:58:02;94980.75;;;19.92;63.16
11268;BME280;72685;47.474;9.416;2023-09-18T01:00:28;94984.56;;;19.84;63.60
11268;BME280;72685;47.474;9.416;2023-09-18T01:02:55;94977.25;;;19.91;62.80
11268;BME280;72685;47.474;9.416;2023-09-18T01:05:20;94980.78;;;19.95;62.85
11268;BME280;72685;47.474;9.416;2023-09-18T01:07:46;94986.59;;;19.94;64.47
11268;BME280;72685;47.474;9.416;2023-09-18T01:10:12;94980.31;;;19.86;64.81
11268;BME280;72685;47.474;9.416;2023-09-18T01:12:49;94988.78;;;19.78;65.02
11268;BME280;72685;47.474;9.416;2023-09-18T01:15:22;94994.53;;;19.73;65.14
11268;BME280;72685;47.474;9.416;2023-09-18T01:17:52;94999.50;;;19.64;66.38
11268;BME280;72685;47.474;9.416;2023-09-18T01:20:17;94995.44;;;19.40;66.63
11268;BME280;72685;47.474;9.416;2023-09-18T01:22:43;94997.63;;;19.31;66.90
11268;BME280;72685;47.474;9.416;2023-09-18T01:25:08;94979.44;;;19.31;66.43
11268;BME280;72685;47.474;9.416;2023-09-18T01:27:34;94981.03;;;19.36;65.40
11268;BME280;72685;47.474;9.416;2023-09-18T01:29:59;94975.00;;;19.13;66.64
11268;BME280;72685;47.474;9.416;2023-09-18T01:32:29;94977.09;;;18.93;68.04
11268;BME280;72685;47.474;9.416;2023-09-18T01:34:57;94972.13;;;18.95;68.03
11268;BME280;72685;47.474;9.416;2023-09-18T01:37:24;94968.44;;;19.14;67.99
11268;BME280;72685;47.474;9.416;2023-09-18T01:39:51;94960.78;;;19.23;68.31
11268;BME280;72685;47.474;9.416;2023-09-18T01:42:17;94957.34;;;19.29;68.63
11268;BME280;72685;47.474;9.416;2023-09-18T01:44:44;94960.03;;;19.26;68.97
11268;BME280;72685;47.474;9.416;2023-09-18T01:47:15;94958.00;;;19.16;69.58
11268;BME280;72685;47.474;9.416;2023-09-18T01:49:41;94958.06;;;19.23;69.71
11268;BME280;72685;47.474;9.416;2023-09-18T01:52:08;94949.00;;;19.05;70.36
11268;BME280;72685;47.474;9.416;2023-09-18T01:54:34;94953.13;;;18.91;70.34
11268;BME280;72685;47.474;9.416;2023-09-18T01:57:01;94957.63;;;18.80;72.05
11268;BME280;72685;47.474;9.416;2023-09-18T01:59:27;94942.88;;;18.74;72.92
11268;BME280;72685;47.474;9.416;2023-09-18T02:01:53;94922.34;;;18.70;73.03
11268;BME280;72685;47.474;9.416;2023-09-18T02:04:19;94927.34;;;18.71;72.88
11268;BME280;72685;47.474;9.416;2023-09-18T02:06:47;94922.59;;;18.61;73.93
11268;BME280;72685;47.474;9.416;2023-09-18T02:09:13;94919.50;;;18.59;74.20
11268;BME280;72685;47.474;9.416;2023-09-18T02:11:40;94924.22;;;18.66;73.73
11268;BME280;72685;47.474;9.416;2023-09-18T02:14:06;94906.78;;;18.33;75.78
11268;BME280;72685;47.474;9.416;2023-09-18T02:16:39;94909.16;;;18.38;76.18
11268;BME280;72685;47.474;9.416;2023-09-18T02:19:13;94911.22;;;18.19;76.55
11268;BME280;72685;47.474;9.416;2023-09-18T02:21:45;94900.41;;;18.19;75.02
11268;BME280;72685;47.474;9.416;2023-09-18T02:24:11;94900.88;;;18.24;76.23
11268;BME280;72685;47.474;9.416;2023-09-18T02:26:36;94898.03;;;18.14;76.33
11268;BME280;72685;47.474;9.416;2023-09-18T02:29:04;94886.66;;;18.01;76.75
11268;BME280;72685;47.474;9.416;2023-09-18T02:31:30;94879.41;;;18.05;77.27
11268;BME280;72685;47.474;9.416;2023-09-18T02:33:56;94868.44;;;17.94;77.41
11268;BME280;72685;47.474;9.416;2023-09-18T02:36:22;94883.22;;;17.74;78.68
11268;BME280;72685;47.474;9.416;2023-09-18T02:38:48;94889.66;;;17.66;79.09
11268;BME280;72685;47.474;9.416;2023-09-18T02:41:13;94881.16;;;17.64;79.45
11268;BME280;72685;47.474;9.416;2023-09-18T02:43:38;94884.59;;;17.61;80.56
11268;BME280;72685;47.474;9.416;2023-09-18T02:46:06;94880.44;;;17.67;79.61
11268;BME280;72685;47.474;9.416;2023-09-18T02:48:32;94886.31;;;17.50;80.54
11268;BME280;72685;47.474;9.416;2023-09-18T02:51:01;94881.47;;;17.59;79.79
11268;BME280;72685;47.474;9.416;2023-09-18T02:53:27;94874.19;;;17.63;80.79
11268;BME280;72685;47.474;9.416;2023-09-18T02:55:57;94881.88;;;17.61;80.18
11268;BME280;72685;47.474;9.416;2023-09-18T02:58:23;94885.78;;;17.64;80.37
11268;BME280;72685;47.474;9.416;2023-09-18T03:00:52;94891.38;;;17.52;80.52
11268;BME280;72685;47.474;9.416;2023-09-18T03:03:18;94909.44;;;17.48;81.23
11268;BME280;72685;47.474;9.416;2023-09-18T03:05:44;94910.22;;;17.48;80.47
11268;BME280;72685;47.474;9.416;2023-09-18T03:08:11;94916.19;;;17.57;79.50
11268;BME280;72685;47.474;9.416;2023-09-18T03:10:40;94928.28;;;17.67;79.66
11268;BME280;72685;47.474;9.416;2023-09-18T03:13:08;94931.84;;;17.74;78.85
11268;BME280;72685;47.474;9.416;2023-09-18T03:15:33;94929.59;;;17.76;78.76
11268;BME280;72685;47.474;9.416;2023-09-18T03:18:00;94932.44;;;17.87;77.46
11268;BME280;72685;47.474;9.416;2023-09-18T03:20:26;94934.09;;;17.95;76.41
11268;BME280;72685;47.474;9.416;2023-09-18T03:22:54;94933.31;;;17.94;76.79
11268;BME280;72685;47.474;9.416;2023-09-18T03:25:19;94946.00;;;17.90;77.30
11268;BME280;72685;47.474;9.416;2023-09-18T03:27:44;94958.88;;;17.74;78.24
11268;BME280;72685;47.474;9.416;2023-09-18T03:30:10;94953.47;;;17.74;75.62
11268;BME280;72685;47.474;9.416;2023-09-18T03:32:38;94947.47;;;17.84;73.98
11268;BME280;72685;47.474;9.416;2023-09-18T03:35:04;94953.34;;;17.90;72.62
11268;BME280;72685;47.474;9.416;2023-09-18T03:37:30;94944.53;;;17.96;72.05
11268;BME280;72685;47.474;9.416;2023-09-18T03:39:55;94952.03;;;18.07;71.56
11268;BME280;72685;47.474;9.416;2023-09-18T03:42:20;94965.88;;;18.02;72.86
11268;BME280;72685;47.474;9.416;2023-09-18T03:44:46;94975.38;;;17.92;72.61
11268;BME280;72685;47.474;9.416;2023-09-18T03:47:11;94986.78;;;18.05;72.29
11268;BME280;72685;47.474;9.416;2023-09-18T03:49:37;94990.00;;;18.14;72.28
11268;BME280;72685;47.474;9.416;2023-09-18T03:52:02;94991.28;;;17.97;72.70
11268;BME280;72685;47.474;9.416;2023-09-18T03:54:27;95004.75;;;17.93;73.59
11268;BME280;72685;47.474;9.416;2023-09-18T03:56:53;95002.88;;;17.97;72.08
11268;BME280;72685;47.474;9.416;2023-09-18T03:59:18;94995.06;;;18.15;71.60
11268;BME280;72685;47.474;9.416;2023-09-18T04:01:43;95002.72;;;18.39;70.48
11268;BME280;72685;47.474;9.416;2023-09-18T04:04:10;95002.81;;;18.46;70.15
11268;BME280;72685;47.474;9.416;2023-09-18T04:06:45;95006.97;;;18.67;68.96
11268;BME280;72685;47.474;9.416;2023-09-18T04:09:11;95005.78;;;18.97;68.24
11268;BME280;72685;47.474;9.416;2023-09-18T04:11:37;95004.75;;;19.09;68.46
11268;BME280;72685;47.474;9.416;2023-09-18T04:14:02;95000.28;;;19.27;68.10
11268;BME280;72685;47.474;9.416;2023-09-18T04:16:29;95002.06;;;19.46;67.94
11268;BME280;72685;47.474;9.416;2023-09-18T04:18:56;95005.50;;;19.83;67.72
11268;BME280;72685;47.474;9.416;2023-09-18T04:21:22;95017.16;;;19.87;68.08
11268;BME280;72685;47.474;9.416;2023-09-18T04:23:47;95014.16;;;20.03;68.15
11268;BME280;72685;47.474;9.416;2023-09-18T04:26:12;95024.50;;;19.87;69.72
11268;BME280;72685;47.474;9.416;2023-09-18T04:28:41;95025.13;;;19.70;69.98
11268;BME280;72685;47.474;9.416;2023-09-18T04:31:07;95025.44;;;19.61;70.78
11268;BME280;72685;47.474;9.416;2023-09-18T04:33:33;95038.91;;;19.54;71.28
11268;BME280;72685;47.474;9.416;2023-09-18T04:35:58;95038.19;;;19.57;70.57
11268;BME280;72685;47.474;9.416;2023-09-18T04:38:23;95039.38;;;19.63;70.69
11268;BME280;72685;47.474;9.416;2023-09-18T04:40:49;95046.69;;;19.56;71.32
11268;BME280;72685;47.474;9.416;2023-09-18T04:43:14;95050.59;;;19.58;70.81
11268;BME280;72685;47.474;9.416;2023-09-18T04:45:40;95059.53;;;19.62;70.81
11268;BME280;72685;47.474;9.416;2023-09-18T04:48:05;95064.22;;;19.65;71.13
11268;BME280;72685;47.474;9.416;2023-09-18T04:50:32;95069.13;;;19.56;71.40
11268;BME280;72685;47.474;9.416;2023-09-18T04:52:59;95054.88;;;19.59;71.17
11268;BME280;72685;47.474;9.416;2023-09-18T04:55:24;95049.03;;;19.57;71.44
11268;BME280;72685;47.474;9.416;2023-09-18T04:57:50;95041.94;;;19.45;71.88
11268;BME280;72685;47.474;9.416;2023-09-18T05:00:15;95036.91;;;19.47;71.82
11268;BME280;72685;47.474;9.416;2023-09-18T05:02:42;95048.47;;;19.41;72.89
11268;BME280;72685;47.474;9.416;2023-09-18T05:05:08;95046.00;;;19.62;71.37
11268;BME280;72685;47.474;9.416;2023-09-18T05:07:36;95056.00;;;19.58;71.76
11268;BME280;72685;47.474;9.416;2023-09-18T05:10:02;95060.13;;;19.45;71.88
11268;BME280;72685;47.474;9.416;2023-09-18T05:12:29;95062.03;;;19.41;72.26
11268;BME280;72685;47.474;9.416;2023-09-18T05:14:55;95053.97;;;19.48;72.07
11268;BME280;72685;47.474;9.416;2023-09-18T05:17:39;95059.00;;;19.46;72.35
11268;BME280;72685;47.474;9.416;2023-09-18T05:20:06;95070.94;;;19.41;72.89
11268;BME280;72685;47.474;9.416;2023-09-18T05:22:32;95066.66;;;19.40;73.40
11268;BME280;72685;47.474;9.416;2023-09-18T05:24:58;95074.03;;;19.40;73.81
11268;BME280;72685;47.474;9.416;2023-09-18T05:27:24;95080.53;;;19.35;73.94
11268;BME280;72685;47.474;9.416;2023-09-18T05:29:50;95082.03;;;19.33;74.18
11268;BME280;72685;47.474;9.416;2023-09-18T05:32:15;95086.75;;;19.39;74.10
11268;BME280;72685;47.474;9.416;2023-09-18T05:34:41;95097.69;;;19.43;73.81
11268;BME280;72685;47.474;9.416;2023-09-18T05:37:06;95095.38;;;19.45;74.06
11268;BME280;72685;47.474;9.416;2023-09-18T05:39:31;95103.50;;;19.45;74.48
11268;BME280;72685;47.474;9.416;2023-09-18T05:41:57;95088.41;;;19.47;74.27
11268;BME280;72685;47.474;9.416;2023-09-18T05:44:23;95090.78;;;19.49;73.93
11268;BME280;72685;47.474;9.416;2023-09-18T05:46:48;95091.56;;;19.53;74.46
11268;BME280;72685;47.474;9.416;2023-09-18T05:49:14;95090.06;;;19.56;73.98
11268;BME280;72685;47.474;9.416;2023-09-18T05:51:39;95084.66;;;19.56;73.90
11268;BME280;72685;47.474;9.416;2023-09-18T05:54:05;95083.13;;;19.58;74.81
11268;BME280;72685;47.474;9.416;2023-09-18T05:56:30;95085.09;;;19.61;74.72
11268;BME280;72685;47.474;9.416;2023-09-18T05:58:56;95086.66;;;19.66;74.06
11268;BME280;72685;47.474;9.416;2023-09-18T06:01:21;95092.09;;;19.66;74.38
11268;BME280;72685;47.474;9.416;2023-09-18T06:03:47;95080.16;;;19.74;74.07
11268;BME280;72685;47.474;9.416;2023-09-18T06:06:12;95076.72;;;19.77;73.85
11268;BME280;72685;47.474;9.416;2023-09-18T06:08:38;95066.72;;;19.84;73.79
11268;BME280;72685;47.474;9.416;2023-09-18T06:11:03;95056.22;;;19.83;74.07
11268;BME280;72685;47.474;9.416;2023-09-18T06:13:29;95047.03;;;19.94;73.16
11268;BME280;72685;47.474;9.416;2023-09-18T06:15:55;95045.53;;;20.00;74.58
11268;BME280;72685;47.474;9.416;2023-09-18T06:18:21;95047.94;;;20.09;74.44
11268;BME280;72685;47.474;9.416;2023-09-18T06:20:47;95043.31;;;20.17;72.29
11268;BME280;72685;47.474;9.416;2023-09-18T06:23:13;95041.41;;;20.21;72.36
11268;BME280;72685;47.474;9.416;2023-09-18T06:25:39;95038.78;;;20.28;72.60
11268;BME280;72685;47.474;9.416;2023-09-18T06:28:05;95048.94;;;20.38;72.02
11268;BME280;72685;47.474;9.416;2023-09-18T06:30:31;95047.44;;;20.47;72.03
11268;BME280;72685;47.474;9.416;2023-09-18T06:32:58;95049.75;;;20.45;73.45
11268;BME280;72685;47.474;9.416;2023-09-18T06:35:24;95065.97;;;20.35;75.15
11268;BME280;72685;47.474;9.416;2023-09-18T06:37:49;95071.41;;;20.35;74.51
11268;BME280;72685;47.474;9.416;2023-09-18T06:40:15;95084.84;;;20.21;75.51
11268;BME280;72685;47.474;9.416;2023-09-18T06:42:40;95075.16;;;20.20;77.90
11268;BME280;72685;47.474;9.416;2023-09-18T06:45:06;95077.09;;;20.19;77.93
11268;BME280;72685;47.474;9.416;2023-09-18T06:47:33;95070.06;;;20.15;78.77
11268;BME280;72685;47.474;9.416;2023-09-18T06:49:58;95081.78;;;20.26;79.01
11268;BME280;72685;47.474;9.416;2023-09-18T06:52:25;95068.97;;;20.23;79.38
11268;BME280;72685;47.474;9.416;2023-09-18T06:54:52;95069.00;;;20.26;77.16
11268;BME280;72685;47.474;9.416;2023-09-18T06:57:17;95077.84;;;20.16;79.57
11268;BME280;72685;47.474;9.416;2023-09-18T06:59:43;95088.25;;;20.11;79.02
11268;BME280;72685;47.474;9.416;2023-09-18T07:02:08;95106.84;;;20.08;79.58
11268;BME280;72685;47.474;9.416;2023-09-18T07:04:34;95113.00;;;20.05;79.89
11268;BME280;72685;47.474;9.416;2023-09-18T07:06:59;95122.00;;;20.17;80.10
11268;BME280;72685;47.474;9.416;2023-09-18T07:09:24;95129.44;;;20.23;80.15
11268;BME280;72685;47.474;9.416;2023-09-18T07:11:51;95139.16;;;20.24;79.13
11268;BME280;72685;47.474;9.416;2023-09-18T07:14:17;95148.44;;;20.20;76.29
11268;BME280;72685;47.474;9.416;2023-09-18T07:16:43;95157.75;;;20.22;74.92
11268;BME280;72685;47.474;9.416;2023-09-18T07:19:08;95159.00;;;20.28;75.87
11268;BME280;72685;47.474;9.416;2023-09-18T07:21:37;95166.44;;;20.38;74.93
11268;BME280;72685;47.474;9.416;2023-09-18T07:24:03;95166.88;;;20.44;76.34
11268;BME280;72685;47.474;9.416;2023-09-18T07:26:28;95183.16;;;20.44;73.57
11268;BME280;72685;47.474;9.416;2023-09-18T07:28:54;95182.44;;;20.50;74.95
11268;BME280;72685;47.474;9.416;2023-09-18T07:31:19;95184.38;;;20.50;71.17
11268;BME280;72685;47.474;9.416;2023-09-18T07:33:45;95198.31;;;20.45;72.99
11268;BME280;72685;47.474;9.416;2023-09-18T07:36:10;95195.13;;;20.39;74.43
11268;BME280;72685;47.474;9.416;2023-09-18T07:38:35;95200.13;;;20.34;74.72
11268;BME280;72685;47.474;9.416;2023-09-18T07:41:02;95202.44;;;20.32;74.01
11268;BME280;72685;47.474;9.416;2023-09-18T07:43:28;95210.44;;;20.21;74.06
11268;BME280;72685;47.474;9.416;2023-09-18T07:45:53;95209.31;;;20.22;73.49
11268;BME280;72685;47.474;9.416;2023-09-18T07:48:19;95206.19;;;20.24;72.44
11268;BME280;72685;47.474;9.416;2023-09-18T07:50:45;95209.25;;;20.19;73.93
11268;BME280;72685;47.474;9.416;2023-09-18T07:53:11;95210.06;;;20.19;71.26
11268;BME280;72685;47.474;9.416;2023-09-18T07:55:37;95213.78;;;20.07;71.62
11268;BME280;72685;47.474;9.416;2023-09-18T07:58:03;95217.16;;;19.94;72.09
11268;BME280;72685;47.474;9.416;2023-09-18T08:00:30;95217.13;;;19.90;71.69
11268;BME280;72685;47.474;9.416;2023-09-18T08:02:55;95228.22;;;19.78;73.16
11268;BME280;72685;47.474;9.416;2023-09-18T08:05:29;95236.72;;;19.77;74.34
11268;BME280;72685;47.474;9.416;2023-09-18T08:07:55;95235.88;;;19.73;74.08
11268;BME280;72685;47.474;9.416;2023-09-18T08:10:22;95245.69;;;19.81;74.54
11268;BME280;72685;47.474;9.416;2023-09-18T08:12:48;95245.13;;;19.68;75.94
11268;BME280;72685;47.474;9.416;2023-09-18T08:15:15;95246.28;;;19.67;76.79
11268;BME280;72685;47.474;9.416;2023-09-18T08:17:40;95265.59;;;19.62;78.85
11268;BME280;72685;47.474;9.416;2023-09-18T08:20:07;95247.38;;;19.63;79.54
11268;BME280;72685;47.474;9.416;2023-09-18T08:22:38;95256.94;;;19.53;79.15
11268;BME280;72685;47.474;9.416;2023-09-18T08:25:04;95258.00;;;19.45;80.56
11268;BME280;72685;47.474;9.416;2023-09-18T08:27:30;95255.53;;;19.36;79.39
11268;BME280;72685;47.474;9.416;2023-09-18T08:29:56;95267.69;;;19.20;80.84
11268;BME280;72685;47.474;9.416;2023-09-18T08:32:21;95265.22;;;19.11;81.50
11268;BME280;72685;47.474;9.416;2023-09-18T08:34:46;95267.09;;;19.07;82.71
11268;BME280;72685;47.474;9.416;2023-09-18T08:37:12;95278.53;;;18.97;84.04
11268;BME280;72685;47.474;9.416;2023-09-18T08:39:38;95298.72;;;18.77;88.36
11268;BME280;72685;47.474;9.416;2023-09-18T08:42:04;95303.25;;;18.69;91.09
11268;BME280;72685;47.474;9.416;2023-09-18T08:44:32;95316.72;;;18.46;92.22
11268;BME280;72685;47.474;9.416;2023-09-18T08:46:58;95329.50;;;18.27;93.67
11268;BME280;72685;47.474;9.416;2023-09-18T08:49:23;95344.72;;;18.16;95.14
11268;BME280;72685;47.474;9.416;2023-09-18T08:51:54;95345.94;;;17.99;94.30
11268;BME280;72685;47.474;9.416;2023-09-18T08:54:21;95360.69;;;18.02;98.42
11268;BME280;72685;47.474;9.416;2023-09-18T08:56:49;95354.31;;;17.94;97.33
11268;BME280;72685;47.474;9.416;2023-09-18T08:59:14;95359.59;;;17.87;97.41
11268;BME280;72685;47.474;9.416;2023-09-18T09:01:40;95358.03;;;17.86;97.91
11268;BME280;72685;47.474;9.416;2023-09-18T09:04:05;95360.09;;;17.73;98.84
11268;BME280;72685;47.474;9.416;2023-09-18T09:06:31;95358.25;;;17.62;98.61
11268;BME280;72685;47.474;9.416;2023-09-18T09:08:56;95359.13;;;17.50;99.08
11268;BME280;72685;47.474;9.416;2023-09-18T09:11:22;95363.34;;;17.48;98.79
11268;BME280;72685;47.474;9.416;2023-09-18T09:13:47;95357.84;;;17.44;98.50
11268;BME280;72685;47.474;9.416;2023-09-18T09:16:17;95360.53;;;17.44;97.60
11268;BME280;72685;47.474;9.416;2023-09-18T09:18:49;95353.06;;;17.37;99.17
11268;BME280;72685;47.474;9.416;2023-09-18T09:21:15;95349.84;;;17.32;100.00
11268;BME280;72685;47.474;9.416;2023-09-18T09:23:52;95357.16;;;17.31;99.92
11268;BME280;72685;47.474;9.416;2023-09-18T09:26:20;95357.88;;;17.28;100.00
11268;BME280;72685;47.474;9.416;2023-09-18T09:28:46;95351.75;;;17.31;98.81
11268;BME280;72685;47.474;9.416;2023-09-18T09:31:23;95351.09;;;17.19;99.14
11268;BME280;72685;47.474;9.416;2023-09-18T09:33:51;95354.56;;;17.19;100.00
11268;BME280;72685;47.474;9.416;2023-09-18T09:36:20;95358.91;;;17.08;98.61
11268;BME280;72685;47.474;9.416;2023-09-18T09:38:46;95359.00;;;17.12;99.03
11268;BME280;72685;47.474;9.416;2023-09-18T09:41:14;95367.13;;;17.12;100.00
11268;BME280;72685;47.474;9.416;2023-09-18T09:43:42;95368.09;;;17.04;100.00
11268;BME280;72685;47.474;9.416;2023-09-18T09:46:15;95370.78;;;17.04;99.45
11268;BME280;72685;47.474;9.416;2023-09-18T09:49:02;95369.03;;;16.96;99.69
11268;BME280;72685;47.474;9.416;2023-09-18T09:51:28;95368.69;;;16.97;100.00
11268;BME280;72685;47.474;9.416;2023-09-18T09:53:54;95385.22;;;16.96;100.00
11268;BME280;72685;47.474;9.416;2023-09-18T09:56:20;95388.19;;;16.90;100.00
11268;BME280;72685;47.474;9.416;2023-09-18T09:59:05;95382.59;;;16.83;100.00
11268;BME280;72685;47.474;9.416;2023-09-18T10:01:34;95389.84;;;16.95;100.00
11268;BME280;72685;47.474;9.416;2023-09-18T10:04:04;95391.22;;;16.89;100.00
11268;BME280;72685;47.474;9.416;2023-09-18T10:06:33;95391.31;;;16.92;100.00
11268;BME280;72685;47.474;9.416;2023-09-18T10:09:00;95392.09;;;16.93;100.00
11268;BME280;72685;47.474;9.416;2023-09-18T10:11:27;95399.09;;;16.94;100.00
11268;BME280;72685;47.474;9.416;2023-09-18T10:13:59;95393.94;;;17.05;100.00
11268;BME280;72685;47.474;9.416;2023-09-18T10:16:26;95389.84;;;17.11;100.00
11268;BME280;72685;47.474;9.416;2023-09-18T10:19:14;95392.38;;;17.19;98.97
11268;BME280;72685;47.474;9.416;2023-09-18T10:24:33;95383.78;;;17.48;99.50
11268;BME280;72685;47.474;9.416;2023-09-18T10:27:04;95389.66;;;17.66;100.00
11268;BME280;72685;47.474;9.416;2023-09-18T10:29:35;95381.56;;;17.85;95.80
11268;BME280;72685;47.474;9.416;2023-09-18T10:32:06;95389.53;;;17.78;97.84
11268;BME280;72685;47.474;9.416;2023-09-18T10:34:35;95385.63;;;17.76;96.35
11268;BME280;72685;47.474;9.416;2023-09-18T10:37:03;95391.72;;;17.73;97.12
11268;BME280;72685;47.474;9.416;2023-09-18T10:39:35;95386.34;;;17.57;91.97
11268;BME280;72685;47.474;9.416;2023-09-18T10:42:02;95394.19;;;17.62;95.15
11268;BME280;72685;47.474;9.416;2023-09-18T10:44:29;95399.16;;;17.60;95.91
11268;BME280;72685;47.474;9.416;2023-09-18T10:46:57;95401.09;;;17.60;96.09
11268;BME280;72685;47.474;9.416;2023-09-18T10:49:24;95404.91;;;17.59;96.24
11268;BME280;72685;47.474;9.416;2023-09-18T10:51:53;95386.78;;;17.43;95.74
11268;BME280;72685;47.474;9.416;2023-09-18T10:54:23;95391.97;;;17.52;95.70
11268;BME280;72685;47.474;9.416;2023-09-18T10:56:49;95386.94;;;17.51;92.84
11268;BME280;72685;47.474;9.416;2023-09-18T10:59:15;95387.66;;;17.63;93.72
11268;BME280;72685;47.474;9.416;2023-09-18T11:01:42;95381.19;;;17.52;92.37
11268;BME280;72685;47.474;9.416;2023-09-18T11:04:08;95382.25;;;17.63;94.19
11268;BME280;72685;47.474;9.416;2023-09-18T11:09:22;95382.78;;;17.88;94.44
11268;BME280;72685;47.474;9.416;2023-09-18T11:12:02;95383.41;;;17.81;94.57
11268;BME280;72685;47.474;9.416;2023-09-18T11:14:57;95382.53;;;17.77;92.31
11268;BME280;72685;47.474;9.416;2023-09-18T11:17:35;95389.78;;;17.89;93.46
11268;BME280;72685;47.474;9.416;2023-09-18T11:20:24;95386.97;;;17.85;92.54
11268;BME280;72685;47.474;9.416;2023-09-18T11:23:16;95382.84;;;17.72;90.70
11268;BME280;72685;47.474;9.416;2023-09-18T11:25:42;95376.94;;;17.67;88.64
11268;BME280;72685;47.474;9.416;2023-09-18T11:28:24;95370.47;;;17.56;89.61
11268;BME280;72685;47.474;9.416;2023-09-18T11:30:54;95375.34;;;17.50;89.70
11268;BME280;72685;47.474;9.416;2023-09-18T11:36:13;95365.53;;;17.42;90.64
11268;BME280;72685;47.474;9.416;2023-09-18T11:39:00;95362.72;;;17.54;93.84
11268;BME280;72685;47.474;9.416;2023-09-18T11:41:31;95358.41;;;17.69;92.55
11268;BME280;72685;47.474;9.416;2023-09-18T11:46:48;95335.47;;;17.78;90.47
11268;BME280;72685;47.474;9.416;2023-09-18T11:49:23;95334.34;;;17.79;86.82
11268;BME280;72685;47.474;9.416;2023-09-18T11:51:52;95327.84;;;17.84;88.70
11268;BME280;72685;47.474;9.416;2023-09-18T11:54:17;95314.78;;;17.86;84.97
11268;BME280;72685;47.474;9.416;2023-09-18T11:56:43;95328.28;;;17.86;87.59
11268;BME280;72685;47.474;9.416;2023-09-18T11:59:09;95310.56;;;17.88;85.64
11268;BME280;72685;47.474;9.416;2023-09-18T12:01:36;95312.34;;;17.81;85.70
11268;BME280;72685;47.474;9.416;2023-09-18T12:04:02;95310.91;;;17.87;86.66
11268;BME280;72685;47.474;9.416;2023-09-18T12:06:34;95303.03;;;17.97;83.30
11268;BME280;72685;47.474;9.416;2023-09-18T12:08:59;95300.41;;;18.01;82.71
11268;BME280;72685;47.474;9.416;2023-09-18T12:11:25;95295.22;;;17.92;84.68
11268;BME280;72685;47.474;9.416;2023-09-18T12:13:51;95284.88;;;17.98;83.07
11268;BME280;72685;47.474;9.416;2023-09-18T12:16:17;95275.50;;;17.92;81.64
11268;BME280;72685;47.474;9.416;2023-09-18T12:18:47;95269.31;;;17.91;80.79
11268;BME280;72685;47.474;9.416;2023-09-18T12:21:13;95255.94;;;17.98;79.67
11268;BME280;72685;47.474;9.416;2023-09-18T12:23:42;95254.81;;;18.00;79.60
11268;BME280;72685;47.474;9.416;2023-09-18T12:26:15;95272.63;;;18.04;82.49
11268;BME280;72685;47.474;9.416;2023-09-18T12:28:42;95277.69;;;18.06;81.15
11268;BME280;72685;47.474;9.416;2023-09-18T12:31:15;95277.88;;;18.16;81.96
11268;BME280;72685;47.474;9.416;2023-09-18T12:33:42;95274.47;;;18.19;83.27
11268;BME280;72685;47.474;9.416;2023-09-18T12:36:19;95270.16;;;18.15;83.26
11268;BME280;72685;47.474;9.416;2023-09-18T12:38:55;95269.91;;;18.23;80.61
11268;BME280;72685;47.474;9.416;2023-09-18T12:41:23;95257.09;;;18.20;79.79
11268;BME280;72685;47.474;9.416;2023-09-18T12:43:49;95258.03;;;18.28;79.93
11268;BME280;72685;47.474;9.416;2023-09-18T12:46:14;95251.03;;;18.27;83.23
11268;BME280;72685;47.474;9.416;2023-09-18T12:48:40;95252.69;;;18.31;83.00
11268;BME280;72685;47.474;9.416;2023-09-18T12:51:10;95233.06;;;18.38;85.74
11268;BME280;72685;47.474;9.416;2023-09-18T12:53:36;95224.34;;;18.48;80.68
11268;BME280;72685;47.474;9.416;2023-09-18T12:56:06;95219.56;;;18.61;79.03
11268;BME280;72685;47.474;9.416;2023-09-18T12:58:32;95211.09;;;18.62;79.65
11268;BME280;72685;47.474;9.416;2023-09-18T13:00:57;95203.47;;;18.71;80.52
11268;BME280;72685;47.474;9.416;2023-09-18T13:03:23;95205.84;;;18.73;79.29
11268;BME280;72685;47.474;9.416;2023-09-18T13:05:48;95220.47;;;18.68;81.98
11268;BME280;72685;47.474;9.416;2023-09-18T13:08:14;95231.69;;;18.70;83.19
11268;BME280;72685;47.474;9.416;2023-09-18T13:10:47;95235.81;;;18.87;83.06
11268;BME280;72685;47.474;9.416;2023-09-18T13:13:23;95234.13;;;19.01;84.12